Stuyvesant — WNFX — position and weather

sailwx.info

Track history (hours):
 
Tides and Currents Weather Stations Pressure Air Temp Water Temp Dewpoint Dewpoint Depression Visibility Wind Speed Wind Dir Waves Ship Positions

Stuyvesant

Owner: THE DUTRA GROUP, SAN RAFAEL, CA. More information available from US FCC via Universal Licensing System and Coast Guard Vessel Documentation Center.

Last reported at 2015-Feb-02 01:31 UTC. Time now 2015-Feb-02 01:48 UTC.
Position N 40°40' W 074°04'.

Length 122 m; draft 10.2 m.

Type: Cargo ship. MMSI: 368098000.

Date/timePositionNaut miles runAvg speedWind from/ knotsBaromVisibWave heightAir tempDewpointWater temp
2015-Feb-02 01:31N 40°40' W 074°04'0 0.0
2015-Feb-02 00:31N 40°40' W 074°04'0 0.0
2015-Feb-01 23:31N 40°40' W 074°04'0 0.0
2015-Feb-01 22:31N 40°40' W 074°04'0 0.0
2015-Feb-01 21:34N 40°40' W 074°04'0 0.0
2015-Feb-01 20:33N 40°40' W 074°04'0 0.0
2015-Feb-01 19:33N 40°40' W 074°04'0 0.0
2015-Feb-01 18:33N 40°40' W 074°04'0 0.0
2015-Feb-01 17:33N 40°40' W 074°04'0 0.0
2015-Feb-01 16:27N 40°40' W 074°04'0 0.0
2015-Feb-01 15:33N 40°40' W 074°04'0 0.0
2015-Feb-01 14:33N 40°40' W 074°04'0 0.0
2015-Feb-01 13:33N 40°40' W 074°04'0 0.0
2015-Feb-01 12:09N 40°40' W 074°04'0 0.0
2015-Feb-01 11:33N 40°40' W 074°04'0 0.0
2015-Feb-01 10:33N 40°40' W 074°04'0 0.0
2015-Feb-01 09:33N 40°40' W 074°04'0 0.0
2015-Feb-01 08:33N 40°40' W 074°04'0 0.0
2015-Feb-01 07:27N 40°40' W 074°04'0 0.0
2015-Feb-01 05:33N 40°40' W 074°04'0 0.0
2015-Feb-01 04:21N 40°40' W 074°04'0 0.0
2015-Feb-01 03:33N 40°40' W 074°04'0 0.0
2015-Feb-01 02:33N 40°40' W 074°04'0 0.0
2015-Feb-01 01:33N 40°40' W 074°04'0 0.0
2015-Feb-01 00:33N 40°40' W 074°04'0 0.0
2015-Jan-31 23:33N 40°40' W 074°04'0 0.0
2015-Jan-31 22:33N 40°40' W 074°04'0 0.0
2015-Jan-31 21:33N 40°40' W 074°04'0 0.0
2015-Jan-31 20:33N 40°40' W 074°04'0 0.0
2015-Jan-31 19:33N 40°40' W 074°04'0 0.0
2015-Jan-31 18:33N 40°40' W 074°04'0 0.0
2015-Jan-31 17:33N 40°40' W 074°04'0 0.0
2015-Jan-31 16:33N 40°40' W 074°04'0 0.0
2015-Jan-31 15:33N 40°40' W 074°04'0 0.0
2015-Jan-31 14:21N 40°40' W 074°04'0 0.0
2015-Jan-31 13:33N 40°40' W 074°04'0 0.0
2015-Jan-31 12:33N 40°40' W 074°04'0 0.0
2015-Jan-31 11:33N 40°40' W 074°04'0 0.0
2015-Jan-31 10:26N 40°40' W 074°04'0 0.0
2015-Jan-31 09:32N 40°40' W 074°04'0 0.0
2015-Jan-31 08:32N 40°40' W 074°04'0 0.0
2015-Jan-31 07:29N 40°40' W 074°04'0 0.0
2015-Jan-31 06:32N 40°40' W 074°04'0 0.0
2015-Jan-31 04:29N 40°40' W 074°04'0 0.0
2015-Jan-31 03:11N 40°40' W 074°04'0 0.0
2015-Jan-31 02:23N 40°40' W 074°04'0 0.0
2015-Jan-31 00:05N 40°40' W 074°04'0 0.0
2015-Jan-30 22:33N 40°40' W 074°04'0 0.0
2015-Jan-30 21:32N 40°40' W 074°04'0 0.0
2015-Jan-30 20:33N 40°40' W 074°04'0 0.0
2015-Jan-30 19:33N 40°40' W 074°04'0 0.0
2015-Jan-30 18:33N 40°40' W 074°04'0 0.0
2015-Jan-30 17:28N 40°40' W 074°04'2 1.9
2015-Jan-30 16:33N 40°38' W 074°03'7 6.5
2015-Jan-30 15:28N 40°32' W 074°01'37 4.7
2015-Jan-30 07:33N 40°33' W 073°12'11 5.3
2015-Jan-30 05:31N 40°36' W 072°58'6 5.7
2015-Jan-30 04:33N 40°40' W 072°53'5 5.4
2015-Jan-30 03:33N 40°44' W 072°48'1 0.5
2015-Jan-30 02:33N 40°44' W 072°48'0 0.0
2015-Jan-30 01:34N 40°44' W 072°48'0 0.0
2015-Jan-30 00:33N 40°44' W 072°48'0 0.0
2015-Jan-29 23:33N 40°44' W 072°48'0 0.0
2015-Jan-29 22:34N 40°44' W 072°48'0 0.0
2015-Jan-29 21:33N 40°44' W 072°48'8 8.2
2015-Jan-29 20:34N 40°47' W 072°38'2 2.3
2015-Jan-29 19:34N 40°48' W 072°35'1 1.0
2015-Jan-29 18:34N 40°48' W 072°34'1110.7
2015-Jan-29 17:33N 40°44' W 072°47'1 0.8
2015-Jan-29 16:34N 40°44' W 072°48'0 0.0
2015-Jan-29 15:34N 40°44' W 072°48'0 0.0
2015-Jan-29 14:34N 40°44' W 072°48'4 4.4
2015-Jan-29 13:34N 40°45' W 072°42'6 5.9
2015-Jan-29 12:34N 40°48' W 072°35'1 1.0
2015-Jan-29 11:33N 40°48' W 072°34'1010.6
2015-Jan-29 10:34N 40°44' W 072°47'1 0.9
2015-Jan-29 09:34N 40°44' W 072°48'0 0.0
2015-Jan-29 08:30N 40°44' W 072°48'0 0.0
2015-Jan-29 07:34N 40°44' W 072°48'0 0.0
2015-Jan-29 06:33N 40°44' W 072°48'9 8.7
2015-Jan-29 05:31N 40°47' W 072°37'2 1.7
2015-Jan-29 04:34N 40°48' W 072°35'1 1.5
2015-Jan-29 03:34N 40°47' W 072°36'9 8.9
2015-Jan-29 02:33N 40°44' W 072°47'0 0.4
2015-Jan-29 01:33N 40°44' W 072°48'0 0.0
2015-Jan-29 00:33N 40°44' W 072°48'0 0.0
2015-Jan-28 23:34N 40°44' W 072°48'0 0.0
2015-Jan-28 22:34N 40°44' W 072°48'9 7.4
2015-Jan-28 21:19N 40°47' W 072°36'1 1.3
2015-Jan-28 20:34N 40°48' W 072°35'2 1.6
2015-Jan-28 19:33N 40°48' W 072°33'1110.7
2015-Jan-28 18:34N 40°44' W 072°46'1 1.1
2015-Jan-28 17:34N 40°44' W 072°48'0 0.0
2015-Jan-28 16:33N 40°44' W 072°48'0 0.0
2015-Jan-28 15:34N 40°44' W 072°48'0 0.0
2015-Jan-28 14:33N 40°44' W 072°48'2 2.3
2015-Jan-28 13:34N 40°42' W 072°47'1 1.1
2015-Jan-28 12:29N 40°41' W 072°47'2 2.6
2015-Jan-28 11:33N 40°44' W 072°47'2 1.7
2015-Jan-28 10:33N 40°44' W 072°46'2 1.7
2015-Jan-28 09:34N 40°45' W 072°43'2 1.9
2015-Jan-28 08:32N 40°46' W 072°41'4 2.9
2015-Jan-28 07:10N 40°47' W 072°36'1 2.2
2015-Jan-28 06:33N 40°48' W 072°35'0 0.4
2015-Jan-28 05:34N 40°48' W 072°35'3 3.4
2015-Jan-28 04:34N 40°46' W 072°39'10 9.9
2015-Jan-28 03:34N 40°40' W 072°50'1010.0
2015-Jan-28 02:32N 40°34' W 073°01'2510.2
2015-Jan-28 00:05N 40°30' W 073°33'7 9.8
2015-Jan-27 23:21N 40°29' W 073°42'1210.5
2015-Jan-27 22:11N 40°31' W 073°58'711.9
2015-Jan-27 21:34N 40°37' W 074°03'2 2.2
2015-Jan-27 20:33N 40°39' W 074°03'0 0.1
2015-Jan-27 19:33N 40°39' W 074°03'0 0.0
2015-Jan-27 18:33N 40°39' W 074°03'0 0.0
2015-Jan-27 17:33N 40°39' W 074°03'0 0.0
2015-Jan-27 16:33N 40°39' W 074°03'0 0.0
2015-Jan-27 15:33N 40°39' W 074°03'0 0.0
2015-Jan-27 14:33N 40°39' W 074°03'0 0.0
2015-Jan-27 13:33N 40°39' W 074°03'0 0.0
2015-Jan-27 12:33N 40°39' W 074°03'0 0.0
2015-Jan-27 11:33N 40°39' W 074°03'0 0.0
2015-Jan-27 10:33N 40°39' W 074°03'0 0.0
2015-Jan-27 09:33N 40°39' W 074°03'0 0.0
2015-Jan-27 08:33N 40°39' W 074°03'0 0.0
2015-Jan-27 07:33N 40°39' W 074°03'0 0.0
2015-Jan-27 06:33N 40°39' W 074°03'0 0.0
2015-Jan-27 05:33N 40°39' W 074°03'0 0.1
2015-Jan-27 04:32N 40°39' W 074°03'0 0.1
2015-Jan-27 03:32N 40°39' W 074°03'0 0.0
2015-Jan-27 02:32N 40°39' W 074°03'0 0.0
2015-Jan-27 01:32N 40°39' W 074°03'0 0.0
2015-Jan-27 00:32N 40°39' W 074°03'0 0.0
2015-Jan-26 23:26N 40°39' W 074°03'0 0.0
2015-Jan-26 22:32N 40°39' W 074°03'0 0.0
2015-Jan-26 21:33N 40°39' W 074°03'0 0.0
2015-Jan-26 20:33N 40°39' W 074°03'0 0.1
2015-Jan-26 19:33N 40°39' W 074°03'0 0.1
2015-Jan-26 18:33N 40°39' W 074°03'0 0.0
2015-Jan-26 17:33N 40°39' W 074°03'0 0.1
2015-Jan-26 16:33N 40°39' W 074°03'0 0.1
2015-Jan-26 15:33N 40°39' W 074°03'0 0.0
2015-Jan-26 14:33N 40°39' W 074°03'0 0.0
2015-Jan-26 13:33N 40°39' W 074°03'0 0.0
2015-Jan-26 12:33N 40°39' W 074°03'0 0.0
2015-Jan-26 11:33N 40°39' W 074°03'0 0.0
2015-Jan-26 10:33N 40°39' W 074°03'2 2.0
2015-Jan-26 09:33N 40°37' W 074°03'8 7.8
2015-Jan-26 08:33N 40°31' W 073°58'29 9.5
2015-Jan-26 05:33N 40°31' W 073°21'10 9.8
2015-Jan-26 04:30N 40°33' W 073°07'11 9.8
2015-Jan-26 03:20N 40°37' W 072°53'1111.0
2015-Jan-26 02:18N 40°42' W 072°40'4 4.8
2015-Jan-26 01:33N 40°45' W 072°36'3 3.1
2015-Jan-26 00:32N 40°48' W 072°35'3 3.1
2015-Jan-25 23:34N 40°45' W 072°36'2 1.8
2015-Jan-25 22:33N 40°46' W 072°36'0 0.2
2015-Jan-25 21:33N 40°47' W 072°36'2 1.8
2015-Jan-25 20:34N 40°48' W 072°34'8 8.0
2015-Jan-25 19:33N 40°45' W 072°24'2 2.4
2015-Jan-25 18:33N 40°47' W 072°23'2 1.6
2015-Jan-25 17:33N 40°48' W 072°22'1 1.5
2015-Jan-25 16:33N 40°49' W 072°23'2 1.7
2015-Jan-25 15:33N 40°51' W 072°23'2 2.3
2015-Jan-25 14:33N 40°49' W 072°23'2 2.3
2015-Jan-25 13:33N 40°46' W 072°24'2 2.3
2015-Jan-25 12:33N 40°44' W 072°24'2 2.2
2015-Jan-25 11:33N 40°42' W 072°24'1 1.5
2015-Jan-25 10:33N 40°42' W 072°26'1 1.5
2015-Jan-25 09:33N 40°43' W 072°28'1 1.4
2015-Jan-25 08:33N 40°43' W 072°30'2 2.0
2015-Jan-25 07:33N 40°45' W 072°31'2 2.4
2015-Jan-25 06:33N 40°47' W 072°32'1 0.8
2015-Jan-25 05:33N 40°48' W 072°33'2 2.0
2015-Jan-25 04:33N 40°46' W 072°33'2 2.4
2015-Jan-25 03:33N 40°43' W 072°33'3 2.9
2015-Jan-25 02:33N 40°41' W 072°33'3 3.0
2015-Jan-25 01:33N 40°38' W 072°34'3 2.6
2015-Jan-25 00:33N 40°40' W 072°34'3 2.7
2015-Jan-24 23:33N 40°43' W 072°35'3 3.4
2015-Jan-24 22:33N 40°46' W 072°36'8 7.8
2015-Jan-24 21:33N 40°44' W 072°45'2 2.1
2015-Jan-24 20:33N 40°44' W 072°48'0 0.0
2015-Jan-24 19:33N 40°44' W 072°48'0 0.0
2015-Jan-24 18:33N 40°44' W 072°48'0 0.0
2015-Jan-24 17:33N 40°44' W 072°48'9 6.2
2015-Jan-24 16:08N 40°47' W 072°37'1 2.3
2015-Jan-24 15:33N 40°48' W 072°35'1 0.9
2015-Jan-24 14:33N 40°48' W 072°34'11 2.2
2015-Jan-24 09:33N 40°44' W 072°48'10 4.9
2015-Jan-24 07:33N 40°48' W 072°36'1 1.1
2015-Jan-24 06:33N 40°48' W 072°34'1 1.1
2015-Jan-24 05:33N 40°47' W 072°35'10 9.8
2015-Jan-24 04:33N 40°44' W 072°48'0 0.0
2015-Jan-24 03:33N 40°44' W 072°48'0 0.0
2015-Jan-24 02:33N 40°44' W 072°48'0 0.0
2015-Jan-24 01:33N 40°44' W 072°48'0 0.5
2015-Jan-24 00:33N 40°44' W 072°48'10 9.8
2015-Jan-23 23:33N 40°48' W 072°36'1 1.1
2015-Jan-23 22:33N 40°48' W 072°34'0 0.4
2015-Jan-23 21:33N 40°48' W 072°34'1110.9
2015-Jan-23 20:33N 40°44' W 072°48'0 0.2
2015-Jan-23 19:33N 40°44' W 072°48'0 0.0
2015-Jan-23 18:33N 40°44' W 072°48'0 0.0
2015-Jan-23 17:33N 40°44' W 072°48'10 5.0
2015-Jan-23 15:33N 40°48' W 072°35'1 0.9
2015-Jan-23 14:33N 40°48' W 072°34'3 3.4
2015-Jan-23 13:33N 40°47' W 072°38'8 7.5
2015-Jan-23 12:33N 40°44' W 072°48'0 0.0
2015-Jan-23 11:33N 40°44' W 072°48'0 0.0
2015-Jan-23 10:33N 40°44' W 072°48'0 0.0
2015-Jan-23 09:33N 40°44' W 072°48'10 5.1
2015-Jan-23 07:33N 40°48' W 072°35'1 0.9
2015-Jan-23 06:33N 40°48' W 072°34'4 4.0
2015-Jan-23 05:33N 40°46' W 072°39'7 6.9
2015-Jan-23 04:33N 40°44' W 072°48'0 0.0
2015-Jan-23 03:33N 40°44' W 072°48'0 0.0
2015-Jan-23 02:33N 40°44' W 072°48'0 0.0
2015-Jan-23 01:33N 40°44' W 072°48'  
Track history (hours):
 
Tides and Currents Weather Stations Pressure Air Temp Water Temp Dewpoint Dewpoint Depression Visibility Wind Speed Wind Dir Waves Ship Positions

Stuyvesant

Owner: THE DUTRA GROUP, SAN RAFAEL, CA. More information available from US FCC via Universal Licensing System and Coast Guard Vessel Documentation Center.

Last reported at 2015-Feb-02 01:31 UTC. Time now 2015-Feb-02 01:48 UTC.
Position N 40°40' W 074°04'.

Length 122 m; draft 10.2 m.

Type: Cargo ship. MMSI: 368098000.

Date/timePositionNaut miles runAvg speedWind from/ knotsBaromVisibWave heightAir tempDewpointWater temp
2015-Feb-02 01:31N 40°40' W 074°04'0 0.0
2015-Feb-02 00:31N 40°40' W 074°04'0 0.0
2015-Feb-01 23:31N 40°40' W 074°04'0 0.0
2015-Feb-01 22:31N 40°40' W 074°04'0 0.0
2015-Feb-01 21:34N 40°40' W 074°04'0 0.0
2015-Feb-01 20:33N 40°40' W 074°04'0 0.0
2015-Feb-01 19:33N 40°40' W 074°04'0 0.0
2015-Feb-01 18:33N 40°40' W 074°04'0 0.0
2015-Feb-01 17:33N 40°40' W 074°04'0 0.0
2015-Feb-01 16:27N 40°40' W 074°04'0 0.0
2015-Feb-01 15:33N 40°40' W 074°04'0 0.0
2015-Feb-01 14:33N 40°40' W 074°04'0 0.0
2015-Feb-01 13:33N 40°40' W 074°04'0 0.0
2015-Feb-01 12:09N 40°40' W 074°04'0 0.0
2015-Feb-01 11:33N 40°40' W 074°04'0 0.0
2015-Feb-01 10:33N 40°40' W 074°04'0 0.0
2015-Feb-01 09:33N 40°40' W 074°04'0 0.0
2015-Feb-01 08:33N 40°40' W 074°04'0 0.0
2015-Feb-01 07:27N 40°40' W 074°04'0 0.0
2015-Feb-01 05:33N 40°40' W 074°04'0 0.0
2015-Feb-01 04:21N 40°40' W 074°04'0 0.0
2015-Feb-01 03:33N 40°40' W 074°04'0 0.0
2015-Feb-01 02:33N 40°40' W 074°04'0 0.0
2015-Feb-01 01:33N 40°40' W 074°04'0 0.0
2015-Feb-01 00:33N 40°40' W 074°04'0 0.0
2015-Jan-31 23:33N 40°40' W 074°04'0 0.0
2015-Jan-31 22:33N 40°40' W 074°04'0 0.0
2015-Jan-31 21:33N 40°40' W 074°04'0 0.0
2015-Jan-31 20:33N 40°40' W 074°04'0 0.0
2015-Jan-31 19:33N 40°40' W 074°04'0 0.0
2015-Jan-31 18:33N 40°40' W 074°04'0 0.0
2015-Jan-31 17:33N 40°40' W 074°04'0 0.0
2015-Jan-31 16:33N 40°40' W 074°04'0 0.0
2015-Jan-31 15:33N 40°40' W 074°04'0 0.0
2015-Jan-31 14:21N 40°40' W 074°04'0 0.0
2015-Jan-31 13:33N 40°40' W 074°04'0 0.0
2015-Jan-31 12:33N 40°40' W 074°04'0 0.0
2015-Jan-31 11:33N 40°40' W 074°04'0 0.0
2015-Jan-31 10:26N 40°40' W 074°04'0 0.0
2015-Jan-31 09:32N 40°40' W 074°04'0 0.0
2015-Jan-31 08:32N 40°40' W 074°04'0 0.0
2015-Jan-31 07:29N 40°40' W 074°04'0 0.0
2015-Jan-31 06:32N 40°40' W 074°04'0 0.0
2015-Jan-31 04:29N 40°40' W 074°04'0 0.0
2015-Jan-31 03:11N 40°40' W 074°04'0 0.0
2015-Jan-31 02:23N 40°40' W 074°04'0 0.0
2015-Jan-31 00:05N 40°40' W 074°04'0 0.0
2015-Jan-30 22:33N 40°40' W 074°04'0 0.0
2015-Jan-30 21:32N 40°40' W 074°04'0 0.0
2015-Jan-30 20:33N 40°40' W 074°04'0 0.0
2015-Jan-30 19:33N 40°40' W 074°04'0 0.0
2015-Jan-30 18:33N 40°40' W 074°04'0 0.0
2015-Jan-30 17:28N 40°40' W 074°04'2 1.9
2015-Jan-30 16:33N 40°38' W 074°03'7 6.5
2015-Jan-30 15:28N 40°32' W 074°01'37 4.7
2015-Jan-30 07:33N 40°33' W 073°12'11 5.3
2015-Jan-30 05:31N 40°36' W 072°58'6 5.7
2015-Jan-30 04:33N 40°40' W 072°53'5 5.4
2015-Jan-30 03:33N 40°44' W 072°48'1 0.5
2015-Jan-30 02:33N 40°44' W 072°48'0 0.0
2015-Jan-30 01:34N 40°44' W 072°48'0 0.0
2015-Jan-30 00:33N 40°44' W 072°48'0 0.0
2015-Jan-29 23:33N 40°44' W 072°48'0 0.0
2015-Jan-29 22:34N 40°44' W 072°48'0 0.0
2015-Jan-29 21:33N 40°44' W 072°48'8 8.2
2015-Jan-29 20:34N 40°47' W 072°38'2 2.3
2015-Jan-29 19:34N 40°48' W 072°35'1 1.0
2015-Jan-29 18:34N 40°48' W 072°34'1110.7
2015-Jan-29 17:33N 40°44' W 072°47'1 0.8
2015-Jan-29 16:34N 40°44' W 072°48'0 0.0
2015-Jan-29 15:34N 40°44' W 072°48'0 0.0
2015-Jan-29 14:34N 40°44' W 072°48'4 4.4
2015-Jan-29 13:34N 40°45' W 072°42'6 5.9
2015-Jan-29 12:34N 40°48' W 072°35'1 1.0
2015-Jan-29 11:33N 40°48' W 072°34'1010.6
2015-Jan-29 10:34N 40°44' W 072°47'1 0.9
2015-Jan-29 09:34N 40°44' W 072°48'0 0.0
2015-Jan-29 08:30N 40°44' W 072°48'0 0.0
2015-Jan-29 07:34N 40°44' W 072°48'0 0.0
2015-Jan-29 06:33N 40°44' W 072°48'9 8.7
2015-Jan-29 05:31N 40°47' W 072°37'2 1.7
2015-Jan-29 04:34N 40°48' W 072°35'1 1.5
2015-Jan-29 03:34N 40°47' W 072°36'9 8.9
2015-Jan-29 02:33N 40°44' W 072°47'0 0.4
2015-Jan-29 01:33N 40°44' W 072°48'0 0.0
2015-Jan-29 00:33N 40°44' W 072°48'0 0.0
2015-Jan-28 23:34N 40°44' W 072°48'0 0.0
2015-Jan-28 22:34N 40°44' W 072°48'9 7.4
2015-Jan-28 21:19N 40°47' W 072°36'1 1.3
2015-Jan-28 20:34N 40°48' W 072°35'2 1.6
2015-Jan-28 19:33N 40°48' W 072°33'1110.7
2015-Jan-28 18:34N 40°44' W 072°46'1 1.1
2015-Jan-28 17:34N 40°44' W 072°48'0 0.0
2015-Jan-28 16:33N 40°44' W 072°48'0 0.0
2015-Jan-28 15:34N 40°44' W 072°48'0 0.0
2015-Jan-28 14:33N 40°44' W 072°48'2 2.3
2015-Jan-28 13:34N 40°42' W 072°47'1 1.1
2015-Jan-28 12:29N 40°41' W 072°47'2 2.6
2015-Jan-28 11:33N 40°44' W 072°47'2 1.7
2015-Jan-28 10:33N 40°44' W 072°46'2 1.7
2015-Jan-28 09:34N 40°45' W 072°43'2 1.9
2015-Jan-28 08:32N 40°46' W 072°41'4 2.9
2015-Jan-28 07:10N 40°47' W 072°36'1 2.2
2015-Jan-28 06:33N 40°48' W 072°35'0 0.4
2015-Jan-28 05:34N 40°48' W 072°35'3 3.4
2015-Jan-28 04:34N 40°46' W 072°39'10 9.9
2015-Jan-28 03:34N 40°40' W 072°50'1010.0
2015-Jan-28 02:32N 40°34' W 073°01'2510.2
2015-Jan-28 00:05N 40°30' W 073°33'7 9.8
2015-Jan-27 23:21N 40°29' W 073°42'1210.5
2015-Jan-27 22:11N 40°31' W 073°58'711.9
2015-Jan-27 21:34N 40°37' W 074°03'2 2.2
2015-Jan-27 20:33N 40°39' W 074°03'0 0.1
2015-Jan-27 19:33N 40°39' W 074°03'0 0.0
2015-Jan-27 18:33N 40°39' W 074°03'0 0.0
2015-Jan-27 17:33N 40°39' W 074°03'0 0.0
2015-Jan-27 16:33N 40°39' W 074°03'0 0.0
2015-Jan-27 15:33N 40°39' W 074°03'0 0.0
2015-Jan-27 14:33N 40°39' W 074°03'0 0.0
2015-Jan-27 13:33N 40°39' W 074°03'0 0.0
2015-Jan-27 12:33N 40°39' W 074°03'0 0.0
2015-Jan-27 11:33N 40°39' W 074°03'0 0.0
2015-Jan-27 10:33N 40°39' W 074°03'0 0.0
2015-Jan-27 09:33N 40°39' W 074°03'0 0.0
2015-Jan-27 08:33N 40°39' W 074°03'0 0.0
2015-Jan-27 07:33N 40°39' W 074°03'0 0.0
2015-Jan-27 06:33N 40°39' W 074°03'0 0.0
2015-Jan-27 05:33N 40°39' W 074°03'0 0.1
2015-Jan-27 04:32N 40°39' W 074°03'0 0.1
2015-Jan-27 03:32N 40°39' W 074°03'0 0.0
2015-Jan-27 02:32N 40°39' W 074°03'0 0.0
2015-Jan-27 01:32N 40°39' W 074°03'0 0.0
2015-Jan-27 00:32N 40°39' W 074°03'0 0.0
2015-Jan-26 23:26N 40°39' W 074°03'0 0.0
2015-Jan-26 22:32N 40°39' W 074°03'0 0.0
2015-Jan-26 21:33N 40°39' W 074°03'0 0.0
2015-Jan-26 20:33N 40°39' W 074°03'0 0.1
2015-Jan-26 19:33N 40°39' W 074°03'0 0.1
2015-Jan-26 18:33N 40°39' W 074°03'0 0.0
2015-Jan-26 17:33N 40°39' W 074°03'0 0.1
2015-Jan-26 16:33N 40°39' W 074°03'0 0.1
2015-Jan-26 15:33N 40°39' W 074°03'0 0.0
2015-Jan-26 14:33N 40°39' W 074°03'0 0.0
2015-Jan-26 13:33N 40°39' W 074°03'0 0.0
2015-Jan-26 12:33N 40°39' W 074°03'0 0.0
2015-Jan-26 11:33N 40°39' W 074°03'0 0.0
2015-Jan-26 10:33N 40°39' W 074°03'2 2.0
2015-Jan-26 09:33N 40°37' W 074°03'8 7.8
2015-Jan-26 08:33N 40°31' W 073°58'29 9.5
2015-Jan-26 05:33N 40°31' W 073°21'10 9.8
2015-Jan-26 04:30N 40°33' W 073°07'11 9.8
2015-Jan-26 03:20N 40°37' W 072°53'1111.0
2015-Jan-26 02:18N 40°42' W 072°40'4 4.8
2015-Jan-26 01:33N 40°45' W 072°36'3 3.1
2015-Jan-26 00:32N 40°48' W 072°35'3 3.1
2015-Jan-25 23:34N 40°45' W 072°36'2 1.8
2015-Jan-25 22:33N 40°46' W 072°36'0 0.2
2015-Jan-25 21:33N 40°47' W 072°36'2 1.8
2015-Jan-25 20:34N 40°48' W 072°34'8 8.0
2015-Jan-25 19:33N 40°45' W 072°24'2 2.4
2015-Jan-25 18:33N 40°47' W 072°23'2 1.6
2015-Jan-25 17:33N 40°48' W 072°22'1 1.5
2015-Jan-25 16:33N 40°49' W 072°23'2 1.7
2015-Jan-25 15:33N 40°51' W 072°23'2 2.3
2015-Jan-25 14:33N 40°49' W 072°23'2 2.3
2015-Jan-25 13:33N 40°46' W 072°24'2 2.3
2015-Jan-25 12:33N 40°44' W 072°24'2 2.2
2015-Jan-25 11:33N 40°42' W 072°24'1 1.5
2015-Jan-25 10:33N 40°42' W 072°26'1 1.5
2015-Jan-25 09:33N 40°43' W 072°28'1 1.4
2015-Jan-25 08:33N 40°43' W 072°30'2 2.0
2015-Jan-25 07:33N 40°45' W 072°31'2 2.4
2015-Jan-25 06:33N 40°47' W 072°32'1 0.8
2015-Jan-25 05:33N 40°48' W 072°33'2 2.0
2015-Jan-25 04:33N 40°46' W 072°33'2 2.4
2015-Jan-25 03:33N 40°43' W 072°33'3 2.9
2015-Jan-25 02:33N 40°41' W 072°33'3 3.0
2015-Jan-25 01:33N 40°38' W 072°34'3 2.6
2015-Jan-25 00:33N 40°40' W 072°34'3 2.7
2015-Jan-24 23:33N 40°43' W 072°35'3 3.4
2015-Jan-24 22:33N 40°46' W 072°36'8 7.8
2015-Jan-24 21:33N 40°44' W 072°45'2 2.1
2015-Jan-24 20:33N 40°44' W 072°48'0 0.0
2015-Jan-24 19:33N 40°44' W 072°48'0 0.0
2015-Jan-24 18:33N 40°44' W 072°48'0 0.0
2015-Jan-24 17:33N 40°44' W 072°48'9 6.2
2015-Jan-24 16:08N 40°47' W 072°37'1 2.3
2015-Jan-24 15:33N 40°48' W 072°35'1 0.9
2015-Jan-24 14:33N 40°48' W 072°34'11 2.2
2015-Jan-24 09:33N 40°44' W 072°48'10 4.9
2015-Jan-24 07:33N 40°48' W 072°36'1 1.1
2015-Jan-24 06:33N 40°48' W 072°34'1 1.1
2015-Jan-24 05:33N 40°47' W 072°35'10 9.8
2015-Jan-24 04:33N 40°44' W 072°48'0 0.0
2015-Jan-24 03:33N 40°44' W 072°48'0 0.0
2015-Jan-24 02:33N 40°44' W 072°48'0 0.0
2015-Jan-24 01:33N 40°44' W 072°48'0 0.5
2015-Jan-24 00:33N 40°44' W 072°48'10 9.8
2015-Jan-23 23:33N 40°48' W 072°36'1 1.1
2015-Jan-23 22:33N 40°48' W 072°34'0 0.4
2015-Jan-23 21:33N 40°48' W 072°34'1110.9
2015-Jan-23 20:33N 40°44' W 072°48'0 0.2
2015-Jan-23 19:33N 40°44' W 072°48'0 0.0
2015-Jan-23 18:33N 40°44' W 072°48'0 0.0
2015-Jan-23 17:33N 40°44' W 072°48'10 5.0
2015-Jan-23 15:33N 40°48' W 072°35'1 0.9
2015-Jan-23 14:33N 40°48' W 072°34'3 3.4
2015-Jan-23 13:33N 40°47' W 072°38'8 7.5
2015-Jan-23 12:33N 40°44' W 072°48'0 0.0
2015-Jan-23 11:33N 40°44' W 072°48'0 0.0
2015-Jan-23 10:33N 40°44' W 072°48'0 0.0
2015-Jan-23 09:33N 40°44' W 072°48'10 5.1
2015-Jan-23 07:33N 40°48' W 072°35'1 0.9
2015-Jan-23 06:33N 40°48' W 072°34'4 4.0
2015-Jan-23 05:33N 40°46' W 072°39'7 6.9
2015-Jan-23 04:33N 40°44' W 072°48'0 0.0
2015-Jan-23 03:33N 40°44' W 072°48'0 0.0
2015-Jan-23 02:33N 40°44' W 072°48'0 0.0
2015-Jan-23 01:33N 40°44' W 072°48'  

Dump ship's entire track history